This is the latest recevied weather packets stored in our database for station/object F4WDE-10. If no packets are shown the sender has not sent any weather packets the latest 10 day(s).
| Time | Temp. | Humidity | Pressure | Rain* | Wind** | Luminosity | Snow |
|---|---|---|---|---|---|---|---|
| 1777951543 | 15.56° C | 91% | 957 hPa | - | - | - | - |
| 1777950642 | 16.11° C | 92% | 957 hPa | - | - | - | - |
| 1777949741 | 15° C | 98% | 957 hPa | - | - | - | - |
| 1777948840 | 15° C | 94% | 957 hPa | - | - | - | - |
| 1777947939 | 15° C | 94% | 957 hPa | - | - | - | - |
| 1777947038 | 14.44° C | 98% | 957 hPa | - | - | - | - |
| 1777946136 | 15° C | 95% | 957 hPa | - | - | - | - |
| 1777945235 | 15° C | 94% | 958 hPa | - | - | - | - |
| 1777944334 | 15.56° C | 93% | 958 hPa | - | - | - | - |
| 1777943433 | 14.44° C | 97% | 958 hPa | - | - | - | - |
| 1777942532 | 14.44° C | 99% | 958 hPa | - | - | - | - |
| 1777941631 | 14.44° C | 99% | 958 hPa | - | - | - | - |
| 1777940729 | 14.44° C | 100% | 958 hPa | - | - | - | - |
| 1777939828 | 14.44° C | 98% | 958 hPa | - | - | - | - |
| 1777938927 | 15° C | 92% | 958 hPa | - | - | - | - |
| 1777938026 | 15.56° C | 88% | 958 hPa | - | - | - | - |
| 1777937125 | 15.56° C | 84% | 959 hPa | - | - | - | - |
| 1777936224 | 15.56° C | 84% | 959 hPa | - | - | - | - |
| 1777935323 | 15.56° C | 83% | 959 hPa | - | - | - | - |
| 1777934422 | 15.56° C | 84% | 959 hPa | - | - | - | - |
| 1777933521 | 15.56° C | 87% | 960 hPa | - | - | - | - |
| 1777932620 | 15° C | 86% | 960 hPa | - | - | - | - |
| 1777931719 | 15° C | 86% | 960 hPa | - | - | - | - |
| 1777930818 | 15° C | 86% | 960 hPa | - | - | - | - |
| 1777929916 | 15° C | 87% | 960 hPa | - | - | - | - |
* Rain since midnight (hover to see other rain measurements)
** Current wind speed in m/s (hover to see current wind gust speed)